GCFV Airport Information

Runway Information
Runway 01 Length 7874 ft width 148 ft
Elevation 37 ft Threshold 0 ft Heading 2
Runway 19 Length 7874 ft Width 148 ft
Elevation 75 ft Threshold 0 ft Heading 182
Airport Frequencies
Type APP Name CANARIAS A Frequency 129.3 MHZ
Type ATIS Name ATIS Frequency 118.65 MHZ
Type GND Name GND Frequency 121.7 MHZ
Type TWR Name TWR Frequency 118.5 MHZ
Airport Navaids
Type VOR-DME Name Fuerteventura Frequency 114100 KHZ
Airport Weather Information & NOTAM
ADDS - METARS form results

(1147 UTC 21 September 2018)
Data provider http://aviationweather.gov/metar/data/
 
METAR text: GCFV 211130Z 05010KT 9999 FEW025 26/20 Q1018
Conditions at: GCFV (FUERTEVENTURA AR, ES) observed 1130 UTC 21 September 2018
Temperature: 26.0°C (79°F)
Dewpoint: 20.0°C (68°F) [RH = 70%]
Pressure (altimeter): 30.06 inches Hg (1018.0 mb)
Winds: from the NE (50 degrees) at 12 MPH (10 knots; 5.1 m/s)
Visibility: 6 or more miles (10+ km)
Ceiling: at least 12,000 feet AGL
Clouds: few clouds at 2500 feet AGL
Weather: no significant weather observed at this time

METAR text: GCFV 211100Z 04012KT 9999 FEW025 26/19 Q1018
Conditions at: GCFV (FUERTEVENTURA AR, ES) observed 1100 UTC 21 September 2018
Temperature: 26.0°C (79°F)
Dewpoint: 19.0°C (66°F) [RH = 65%]
Pressure (altimeter): 30.06 inches Hg (1018.0 mb)
Winds: from the NE (40 degrees) at 14 MPH (12 knots; 6.2 m/s)
Visibility: 6 or more miles (10+ km)
Ceiling: at least 12,000 feet AGL
Clouds: few clouds at 2500 feet AGL
Weather: no significant weather observed at this time

Forecast for: GCFV (FUERTEVENTURA AR, ES)
Text: TAF GCFV 210800Z 2109/2209 36008KT 9999 FEW018 TX27/2114Z TN23/2205Z
Forecast period: 0900 UTC 21 September 2018 to 0900 UTC 22 September 2018
Forecast type: FROM: standard forecast or significant change
Winds: from the N (360 degrees) at 9 MPH (8 knots; 4.1 m/s)
Visibility: 6 or more miles 10+ km)
Ceiling: at least 12,000 feet AGL
Clouds: few clouds at 1800 feet AGL
Weather: no significant weather forecast for this period
Text: BECMG 2109/2111 06013KT
Forecast period: 0900 to 1900 UTC 21 September 2018
Forecast type: BECOMING: Conditions expected to become as follows by 1100 UTC 21 September 2018
Winds: from the ENE (60 degrees) at 15 MPH (13 knots; 6.7 m/s)
Visibility: 6 or more miles 10+ km)
Ceiling: at least 12,000 feet AGL
Clouds: few clouds at 1800 feet AGL
Weather: no significant weather forecast for this period
Text: BECMG 2119/2121 35009KT
Forecast period: 1900 UTC 21 September 2018 to 0900 UTC 22 September 2018
Forecast type: BECOMING: Conditions expected to become as follows by 2100 UTC 21 September 2018
Winds: from the N (350 degrees) at 10 MPH (9 knots; 4.6 m/s)
Visibility: 6 or more miles 10+ km)
Ceiling: at least 12,000 feet AGL
Clouds: few clouds at 1800 feet AGL
Weather: no significant weather forecast for this period